Time;durP1;ratioP1;P1;durP2;ratioP2;P2;SDS_P1;SDS_P2;PMS_P1;PMS_P2;Temp;Humidity;BMP_temperature;BMP_pressure;BME280_temperature;BME280_humidity;BME280_pressure;Samples;Min_cycle;Max_cycle;Signal;HPM_P1;HPM_P2
2023/02/12 00:01:16;;;;;;;26.42;11.98;;;5.90;99.90;;;;;;6208254;23;20368;-80
2023/02/12 00:03:42;;;;;;;39.47;12.35;;;6.20;99.90;;;;;;6210487;23;20087;-79
2023/02/12 00:06:26;;;;;;;41.70;13.18;;;6.40;99.90;;;;;;6208489;23;20044;-80
2023/02/12 00:08:54;;;;;;;33.55;13.20;;;6.10;99.90;;;;;;6185044;23;20016;-79
2023/02/12 00:11:24;;;;;;;32.92;13.30;;;5.90;99.90;;;;;;6209412;23;20091;-80
2023/02/12 00:13:50;;;;;;;42.55;13.90;;;6.40;99.90;;;;;;6185363;23;20032;-79
2023/02/12 00:16:21;;;;;;;50.38;15.20;;;6.30;99.90;;;;;;6185749;23;20013;-80
2023/02/12 00:18:47;;;;;;;33.83;14.23;;;6.40;99.90;;;;;;6211001;23;20009;-78
2023/02/12 00:21:13;;;;;;;36.80;14.50;;;6.10;99.90;;;;;;6209832;23;20488;-79
2023/02/12 00:23:40;;;;;;;37.72;14.70;;;5.90;99.90;;;;;;6185516;23;20055;-80
2023/02/12 00:26:07;;;;;;;38.47;14.88;;;6.20;99.90;;;;;;6185164;23;20021;-81
2023/02/12 00:28:34;;;;;;;43.35;14.85;;;6.00;99.90;;;;;;6208936;23;20510;-80
2023/02/12 00:31:04;;;;;;;48.10;15.02;;;5.90;99.90;;;;;;6208525;23;20017;-79
2023/02/12 00:33:30;;;;;;;40.38;14.93;;;6.30;99.90;;;;;;6183704;23;20042;-79
2023/02/12 00:35:56;;;;;;;37.42;14.75;;;6.40;99.90;;;;;;6185180;23;20075;-79
2023/02/12 00:38:22;;;;;;;45.22;14.55;;;6.40;99.90;;;;;;6209658;23;20008;-80
2023/02/12 00:40:47;;;;;;;47.22;14.95;;;6.30;99.90;;;;;;6185890;23;20015;-80
2023/02/12 00:43:13;;;;;;;48.42;15.23;;;6.10;99.90;;;;;;6210460;23;20044;-81
2023/02/12 00:45:39;;;;;;;43.20;15.07;;;6.40;99.90;;;;;;6185532;23;20075;-80
2023/02/12 00:48:05;;;;;;;39.53;14.93;;;6.40;99.90;;;;;;6209139;23;20100;-79
2023/02/12 00:50:30;;;;;;;37.90;14.45;;;6.10;99.90;;;;;;6186031;23;20027;-81
2023/02/12 00:52:56;;;;;;;36.33;15.55;;;6.40;99.90;;;;;;6185652;23;20012;-80
2023/02/12 00:55:21;;;;;;;32.55;14.48;;;5.80;99.90;;;;;;6211096;23;20433;-79
2023/02/12 00:57:47;;;;;;;37.45;15.63;;;5.80;99.90;;;;;;6185760;23;20040;-79
2023/02/12 01:00:14;;;;;;;37.70;16.05;;;6.00;99.90;;;;;;6185696;23;20077;-79
2023/02/12 01:02:39;;;;;;;41.70;17.00;;;6.30;99.90;;;;;;6209375;23;20384;-80
2023/02/12 01:05:05;;;;;;;35.63;15.45;;;5.80;99.90;;;;;;6209897;23;20013;-80
2023/02/12 01:07:31;;;;;;;39.80;15.35;;;6.30;99.90;;;;;;6209791;23;20016;-81
2023/02/12 01:09:56;;;;;;;44.10;15.57;;;5.80;99.90;;;;;;6211816;23;20070;-80
2023/02/12 01:12:22;;;;;;;41.90;16.50;;;6.00;99.90;;;;;;6186897;23;20399;-79
2023/02/12 01:14:48;;;;;;;43.63;15.80;;;6.00;99.90;;;;;;6212224;23;20111;-80
2023/02/12 01:17:13;;;;;;;41.70;16.15;;;6.40;99.90;;;;;;6186398;23;20044;-80
2023/02/12 01:19:39;;;;;;;52.22;16.10;;;6.40;99.90;;;;;;6186838;23;20036;-80
2023/02/12 01:22:05;;;;;;;55.90;16.30;;;5.90;99.90;;;;;;6211535;23;20070;-80
2023/02/12 01:24:30;;;;;;;53.35;16.77;;;6.40;99.90;;;;;;6212021;23;20017;-80
2023/02/12 01:26:56;;;;;;;42.90;15.38;;;5.90;99.90;;;;;;6212716;23;20047;-79
2023/02/12 01:29:22;;;;;;;54.90;16.50;;;6.10;99.90;;;;;;6186023;23;20013;-80
2023/02/12 01:31:47;;;;;;;47.17;15.80;;;5.90;99.90;;;;;;6190983;23;20008;-79
2023/02/12 01:34:13;;;;;;;56.78;17.02;;;6.20;99.90;;;;;;6211407;23;20012;-79
2023/02/12 01:36:39;;;;;;;63.65;17.02;;;6.30;99.90;;;;;;6185317;23;20009;-81
2023/02/12 01:39:05;;;;;;;61.35;16.85;;;5.80;99.90;;;;;;6208865;23;20024;-79
2023/02/12 01:41:36;;;;;;;65.88;18.08;;;6.00;99.90;;;;;;6185993;23;20016;-81
2023/02/12 01:44:07;;;;;;;76.38;17.55;;;6.30;99.90;;;;;;6211613;23;20020;-79
2023/02/12 01:46:33;;;;;;;75.78;17.60;;;5.80;99.90;;;;;;6211711;23;20353;-81
2023/02/12 01:49:00;;;;;;;82.78;19.90;;;5.90;99.90;;;;;;6189601;23;20116;-80
2023/02/12 01:51:27;;;;;;;82.57;18.27;;;5.70;99.90;;;;;;6212321;23;20495;-79
2023/02/12 01:53:54;;;;;;;87.63;19.85;;;5.70;99.90;;;;;;6184109;23;20456;-79
2023/02/12 01:56:22;;;;;;;98.35;20.70;;;6.30;99.90;;;;;;6186502;23;20110;-82
2023/02/12 01:58:51;;;;;;;91.88;18.80;;;5.90;99.90;;;;;;6212010;23;20062;-81
2023/02/12 02:01:24;;;;;;;102.65;20.52;;;6.20;99.90;;;;;;6210512;23;20017;-81
2023/02/12 02:03:55;;;;;;;78.07;20.45;;;6.10;99.90;;;;;;6211480;23;20095;-80
2023/02/12 02:06:35;;;;;;;80.97;19.80;;;5.80;99.90;;;;;;6210072;23;20020;-78
2023/02/12 02:09:01;;;;;;;86.80;19.48;;;5.60;99.90;;;;;;6211046;23;20096;-80
2023/02/12 02:17:21;;;;;;;91.60;19.88;;;5.70;99.90;;;;;;6208536;23;20027;-79
2023/02/12 02:20:14;;;;;;;77.70;20.20;;;5.50;99.90;;;;;;6185582;23;20024;-80
2023/02/12 02:22:51;;;;;;;64.07;19.23;;;6.10;99.90;;;;;;6184602;23;20009;-80
2023/02/12 02:25:26;;;;;;;56.67;19.02;;;5.80;99.90;;;;;;6186565;23;20021;-80
2023/02/12 02:28:10;;;;;;;68.35;19.10;;;5.50;99.90;;;;;;6186478;23;20028;-80
2023/02/12 02:30:57;;;;;;;78.05;21.33;;;5.50;99.90;;;;;;6185349;23;20436;-80
2023/02/12 02:33:31;;;;;;;61.33;19.98;;;5.90;99.90;;;;;;6185098;23;20040;-80
2023/02/12 02:36:41;;;;;;;69.80;19.55;;;5.50;99.90;;;;;;6211192;23;20309;-79
2023/02/12 02:39:32;;;;;;;64.63;20.05;;;5.60;99.90;;;;;;6211036;23;20013;-80
2023/02/12 02:42:16;;;;;;;63.05;20.00;;;6.00;99.90;;;;;;6210300;23;20009;-79
2023/02/12 02:44:56;;;;;;;61.75;20.52;;;5.80;99.90;;;;;;6186375;23;20013;-79
2023/02/12 02:47:32;;;;;;;77.40;20.80;;;6.10;99.90;;;;;;6185461;23;20044;-80
2023/02/12 02:50:03;;;;;;;60.08;20.65;;;5.50;99.90;;;;;;6185984;23;20009;-78
2023/02/12 02:52:50;;;;;;;67.65;22.38;;;5.70;99.90;;;;;;6186907;23;20024;-80
2023/02/12 02:55:19;;;;;;;87.45;21.85;;;6.00;99.90;;;;;;6211462;23;20008;-80
2023/02/12 02:57:50;;;;;;;72.80;21.65;;;6.10;99.90;;;;;;6185076;23;20510;-81
2023/02/12 03:00:25;;;;;;;72.07;21.85;;;6.20;99.90;;;;;;6211654;23;20082;-80
2023/02/12 03:03:17;;;;;;;71.18;21.92;;;5.60;99.90;;;;;;6186302;23;20016;-79
2023/02/12 03:05:46;;;;;;;78.65;22.52;;;6.20;99.90;;;;;;6210672;23;20009;-79
2023/02/12 03:08:23;;;;;;;107.45;23.83;;;5.70;99.90;;;;;;6186209;23;20013;-79
2023/02/12 03:10:58;;;;;;;79.93;18.90;;;6.00;99.90;;;;;;6211736;23;20014;-81
2023/02/12 03:13:38;;;;;;;72.20;22.20;;;5.80;99.90;;;;;;6211761;23;20058;-81
2023/02/12 03:16:15;;;;;;;88.45;22.80;;;5.90;99.90;;;;;;6160855;23;20005;-81
2023/02/12 03:18:50;;;;;;;88.55;20.65;;;5.80;99.90;;;;;;6210323;23;20013;-81
2023/02/12 03:21:21;;;;;;;85.47;22.98;;;6.10;99.90;;;;;;6184955;23;20028;-80
2023/02/12 03:23:56;;;;;;;100.22;22.58;;;5.70;99.90;;;;;;6184445;23;20070;-80
2023/02/12 03:26:29;;;;;;;96.13;22.67;;;6.00;99.90;;;;;;6160352;23;20102;-80
2023/02/12 03:28:55;;;;;;;94.82;21.42;;;5.70;99.90;;;;;;6161270;23;20023;-81
2023/02/12 03:31:29;;;;;;;101.00;22.60;;;6.30;99.90;;;;;;6161827;23;20016;-79
2023/02/12 03:34:21;;;;;;;93.78;21.42;;;6.30;99.90;;;;;;6161737;23;20388;-79
2023/02/12 03:36:54;;;;;;;91.78;22.40;;;6.20;99.90;;;;;;6159601;23;20090;-79
2023/02/12 03:39:45;;;;;;;84.35;22.27;;;6.20;99.90;;;;;;6159582;23;20384;-79
2023/02/12 03:42:41;;;;;;;85.78;20.15;;;5.90;99.90;;;;;;6185928;23;20012;-80
2023/02/12 03:45:22;;;;;;;87.78;21.77;;;5.70;99.90;;;;;;6159266;23;20059;-80
2023/02/12 03:47:58;;;;;;;88.90;19.25;;;6.30;99.90;;;;;;6160104;23;20023;-81
2023/02/12 03:50:32;;;;;;;94.00;18.90;;;6.00;99.90;;;;;;6158470;23;20021;-81
2023/02/12 03:52:57;;;;;;;62.75;18.83;;;6.20;99.90;;;;;;6159131;23;20075;-80
2023/02/12 03:55:23;;;;;;;134.98;21.75;;;5.90;99.90;;;;;;6161504;23;20037;-80
2023/02/12 03:57:57;;;;;;;116.60;20.42;;;5.70;99.90;;;;;;6160099;23;20526;-80
2023/02/12 04:00:24;;;;;;;163.67;20.00;;;6.10;99.90;;;;;;6185402;23;20004;-79
2023/02/12 04:02:52;;;;;;;182.50;18.83;;;6.00;99.90;;;;;;6160690;23;20512;-82
2023/02/12 04:05:19;;;;;;;207.32;19.52;;;5.60;99.90;;;;;;6185830;23;20449;-81
2023/02/12 04:07:45;;;;;;;191.30;18.02;;;5.80;99.90;;;;;;6184370;23;20267;-80
2023/02/12 04:10:11;;;;;;;153.50;17.48;;;5.50;99.90;;;;;;6160566;23;20094;-81
2023/02/12 04:12:51;;;;;;;133.57;16.33;;;5.90;99.90;;;;;;6185549;23;20706;-81
2023/02/12 04:15:37;;;;;;;168.18;14.23;;;5.40;99.90;;;;;;6160922;23;20119;-81
2023/02/12 04:18:12;;;;;;;109.50;13.85;;;5.50;99.90;;;;;;6065531;23;20011;-79
2023/02/12 04:20:55;;;;;;;126.53;11.32;;;5.80;99.90;;;;;;6051983;23;20022;-80
2023/02/12 04:23:33;;;;;;;175.02;13.77;;;5.90;99.90;;;;;;6041956;23;20018;-81
2023/02/12 04:26:22;;;;;;;155.05;14.93;;;5.60;99.90;;;;;;6092582;23;20327;-80
2023/02/12 04:29:00;;;;;;;210.95;16.73;;;5.70;99.90;;;;;;6036682;23;20023;-79
2023/02/12 04:31:31;;;;;;;107.30;11.95;;;5.70;99.90;;;;;;6037226;23;20015;-79
2023/02/12 04:34:23;;;;;;;102.28;13.02;;;5.90;99.90;;;;;;6038353;23;20050;-80
2023/02/12 04:37:08;;;;;;;85.18;12.55;;;5.80;99.90;;;;;;6038184;23;20015;-80
2023/02/12 04:39:37;;;;;;;122.57;12.82;;;5.40;99.90;;;;;;6039896;23;20093;-81
2023/02/12 04:42:03;;;;;;;131.70;13.20;;;5.40;99.90;;;;;;6040241;23;20019;-80
2023/02/12 04:44:32;;;;;;;78.18;12.25;;;5.50;99.90;;;;;;6039932;23;20018;-79
2023/02/12 04:46:58;;;;;;;101.15;11.77;;;5.40;99.90;;;;;;6015509;23;20092;-79
2023/02/12 04:49:24;;;;;;;149.63;11.23;;;5.30;99.90;;;;;;6016121;23;20490;-78
2023/02/12 04:51:51;;;;;;;152.25;12.43;;;5.30;99.90;;;;;;6047050;23;20023;-79
2023/02/12 04:54:18;;;;;;;198.73;12.75;;;5.80;99.90;;;;;;6029175;23;20138;-79
2023/02/12 04:56:45;;;;;;;106.30;12.25;;;5.30;99.90;;;;;;6127538;23;20013;-81
2023/02/12 04:59:11;;;;;;;244.77;13.52;;;5.60;99.90;;;;;;6101241;23;20080;-80
2023/02/12 05:01:38;;;;;;;160.18;12.38;;;5.70;99.90;;;;;;6101177;23;20013;-80
2023/02/12 05:04:05;;;;;;;255.48;13.38;;;5.70;99.90;;;;;;6102728;23;20361;-81
2023/02/12 05:06:33;;;;;;;123.57;12.82;;;5.80;99.90;;;;;;6168971;23;20017;-79
2023/02/12 05:08:59;;;;;;;159.32;14.38;;;5.60;99.90;;;;;;6211925;23;20127;-79
2023/02/12 05:11:24;;;;;;;98.55;12.48;;;5.70;99.90;;;;;;6186602;23;20385;-79
2023/02/12 05:13:51;;;;;;;179.20;12.90;;;5.80;99.90;;;;;;6187600;23;20111;-80
2023/02/12 05:16:18;;;;;;;136.85;14.13;;;5.80;99.90;;;;;;6185528;23;20024;-81
2023/02/12 05:18:43;;;;;;;125.68;13.25;;;5.50;99.90;;;;;;6215344;23;20012;-81
2023/02/12 05:21:09;;;;;;;104.20;13.30;;;5.30;99.90;;;;;;6187440;23;20008;-81
2023/02/12 05:23:37;;;;;;;118.72;14.15;;;5.40;99.90;;;;;;6211017;23;20013;-79
2023/02/12 05:26:05;;;;;;;131.30;13.57;;;5.40;99.90;;;;;;6212099;23;20346;-79
2023/02/12 05:28:31;;;;;;;115.95;13.80;;;5.70;99.90;;;;;;6186740;23;20060;-82
2023/02/12 05:31:02;;;;;;;126.47;13.50;;;5.80;99.90;;;;;;6186274;23;20341;-80
2023/02/12 05:33:28;;;;;;;68.45;13.23;;;5.70;99.90;;;;;;6212901;23;20091;-80
2023/02/12 05:35:54;;;;;;;160.15;12.65;;;5.70;99.90;;;;;;6187710;23;20044;-79
2023/02/12 05:38:20;;;;;;;86.80;13.57;;;5.70;99.90;;;;;;6189698;23;20034;-80
2023/02/12 05:40:46;;;;;;;95.40;14.02;;;5.70;99.90;;;;;;6212328;23;20015;-79
2023/02/12 05:43:12;;;;;;;85.82;13.35;;;5.40;99.90;;;;;;6186805;23;20013;-79
2023/02/12 05:45:40;;;;;;;113.00;13.75;;;5.30;99.90;;;;;;6186357;23;20016;-81
2023/02/12 05:48:06;;;;;;;70.50;12.52;;;5.30;99.90;;;;;;6211849;23;20016;-79
2023/02/12 05:50:32;;;;;;;124.00;14.93;;;5.20;99.90;;;;;;6186837;23;20036;-81
2023/02/12 05:53:01;;;;;;;135.23;15.02;;;5.70;99.90;;;;;;6186772;23;20016;-81
2023/02/12 05:55:27;;;;;;;115.20;15.43;;;5.30;99.90;;;;;;6214288;23;20408;-81
2023/02/12 05:57:52;;;;;;;79.63;12.77;;;5.70;99.90;;;;;;6219792;23;20016;-78
2023/02/12 06:00:18;;;;;;;57.05;13.32;;;5.40;99.90;;;;;;6236056;23;20019;-78
2023/02/12 06:02:44;;;;;;;120.45;14.98;;;5.70;99.90;;;;;;6208911;23;20012;-80
2023/02/12 06:05:10;;;;;;;63.67;13.63;;;5.20;99.90;;;;;;6192871;23;20012;-78
2023/02/12 06:07:35;;;;;;;64.82;14.52;;;5.70;99.90;;;;;;6186939;23;20021;-81
2023/02/12 06:10:01;;;;;;;106.03;14.55;;;5.10;99.90;;;;;;6213043;23;20021;-81
2023/02/12 06:12:27;;;;;;;214.73;17.05;;;5.10;99.90;;;;;;6188475;23;20012;-81
2023/02/12 06:14:52;;;;;;;142.93;15.55;;;5.60;99.90;;;;;;6188107;23;20016;-80
2023/02/12 06:17:18;;;;;;;144.07;15.68;;;5.70;99.90;;;;;;6184782;23;20095;-81
2023/02/12 06:19:43;;;;;;;133.98;15.68;;;5.20;99.90;;;;;;6186632;23;20471;-79
2023/02/12 06:22:09;;;;;;;109.97;14.95;;;5.70;99.90;;;;;;6186426;23;20126;-82
2023/02/12 06:24:36;;;;;;;61.45;15.52;;;5.20;99.90;;;;;;6186172;23;20016;-78
2023/02/12 06:27:01;;;;;;;110.47;16.42;;;5.50;99.90;;;;;;6186597;23;20025;-82
2023/02/12 06:29:27;;;;;;;111.40;16.75;;;5.60;99.90;;;;;;6210607;23;20115;-81
2023/02/12 06:31:53;;;;;;;98.93;16.83;;;5.60;99.90;;;;;;6211255;23;20016;-81
2023/02/12 06:34:18;;;;;;;161.27;17.42;;;5.20;99.90;;;;;;6186348;23;20013;-78
2023/02/12 06:36:45;;;;;;;71.63;17.23;;;5.30;99.90;;;;;;6186475;23;20008;-79
2023/02/12 06:39:13;;;;;;;101.68;17.73;;;5.50;99.90;;;;;;6209907;23;20017;-81
2023/02/12 06:41:39;;;;;;;106.13;18.27;;;5.60;99.90;;;;;;6212552;23;20331;-81
2023/02/12 06:44:07;;;;;;;107.25;17.60;;;5.70;99.90;;;;;;6161550;23;20433;-79
2023/02/12 06:46:32;;;;;;;180.27;20.63;;;5.70;99.90;;;;;;6186091;23;20024;-80
2023/02/12 06:48:59;;;;;;;56.78;17.90;;;5.30;99.90;;;;;;6184944;23;20017;-79
2023/02/12 06:51:27;;;;;;;70.10;19.15;;;5.70;99.90;;;;;;6212055;23;20016;-81
2023/02/12 06:53:54;;;;;;;55.95;19.20;;;5.60;99.90;;;;;;6185204;23;20085;-82
2023/02/12 06:56:21;;;;;;;52.90;19.20;;;5.20;99.90;;;;;;6211722;23;20019;-81
2023/02/12 06:58:55;;;;;;;47.60;18.00;;;5.20;99.90;;;;;;6185581;23;20341;-81
2023/02/12 07:01:27;;;;;;;47.10;18.08;;;5.60;99.90;;;;;;6211019;23;20055;-81
2023/02/12 07:03:59;;;;;;;39.03;16.20;;;5.60;99.90;;;;;;6211629;23;20015;-81
2023/02/12 07:06:26;;;;;;;41.17;16.48;;;5.20;99.90;;;;;;6187046;23;20016;-78
2023/02/12 07:08:52;;;;;;;44.60;17.42;;;5.20;99.90;;;;;;6207588;23;20021;-79
2023/02/12 07:11:23;;;;;;;41.03;17.02;;;5.70;99.90;;;;;;6158714;23;20070;-82
2023/02/12 07:13:48;;;;;;;39.63;17.25;;;5.20;99.90;;;;;;6186805;23;20443;-80
2023/02/12 07:16:15;;;;;;;42.45;17.30;;;5.40;99.90;;;;;;6185908;23;20016;-80
2023/02/12 07:18:42;;;;;;;50.25;17.27;;;5.20;99.90;;;;;;6184940;23;20008;-80
2023/02/12 07:21:09;;;;;;;44.10;17.75;;;5.30;99.90;;;;;;6186277;23;20013;-81
2023/02/12 07:23:36;;;;;;;65.38;18.75;;;5.20;99.90;;;;;;6185472;23;20328;-80
2023/02/12 07:26:07;;;;;;;52.00;18.58;;;5.10;99.90;;;;;;6185146;23;20035;-81
2023/02/12 07:28:34;;;;;;;73.22;20.98;;;5.60;99.90;;;;;;6184983;23;20069;-81
2023/02/12 07:31:12;;;;;;;65.47;22.77;;;5.50;99.90;;;;;;6210317;23;20017;-80
2023/02/12 07:33:39;;;;;;;65.10;22.25;;;5.20;99.90;;;;;;6211569;23;20020;-81
2023/02/12 07:36:10;;;;;;;75.72;25.40;;;5.20;99.90;;;;;;6211406;23;20329;-81
2023/02/12 07:38:38;;;;;;;62.72;23.33;;;5.60;99.90;;;;;;6210324;23;20009;-80
2023/02/12 07:41:15;;;;;;;66.97;22.75;;;5.60;99.90;;;;;;6185039;23;20020;-81
2023/02/12 07:43:43;;;;;;;51.75;21.42;;;5.70;99.90;;;;;;6185891;23;20016;-80
2023/02/12 07:46:19;;;;;;;59.72;22.63;;;5.30;99.90;;;;;;6184212;23;20540;-80
2023/02/12 07:48:46;;;;;;;66.15;22.08;;;5.70;99.90;;;;;;6184768;23;20022;-81
2023/02/12 07:51:14;;;;;;;58.90;21.00;;;5.40;99.90;;;;;;6184117;23;20082;-80
2023/02/12 07:53:41;;;;;;;74.15;21.77;;;5.30;99.90;;;;;;6184613;23;20070;-81
2023/02/12 07:56:08;;;;;;;50.45;20.55;;;5.30;99.90;;;;;;6210970;23;20120;-80
2023/02/12 07:58:34;;;;;;;48.42;20.00;;;5.70;99.90;;;;;;6210953;23;20008;-81
2023/02/12 08:01:00;;;;;;;51.80;19.25;;;5.60;99.90;;;;;;6184068;23;20087;-80
2023/02/12 08:03:27;;;;;;;51.53;19.02;;;5.30;99.90;;;;;;6209403;23;20095;-78
2023/02/12 08:05:53;;;;;;;40.75;16.90;;;5.30;99.90;;;;;;6209238;23;20471;-80
2023/02/12 08:08:20;;;;;;;42.67;17.23;;;5.60;99.90;;;;;;6184393;23;20020;-81
2023/02/12 08:10:45;;;;;;;35.08;14.90;;;5.60;99.90;;;;;;6211653;23;20171;-82
2023/02/12 08:13:11;;;;;;;40.20;16.27;;;5.80;99.90;;;;;;6184788;23;20455;-81
2023/02/12 08:15:36;;;;;;;37.75;15.30;;;5.30;99.90;;;;;;6212038;23;20051;-81
2023/02/12 08:18:02;;;;;;;39.50;15.25;;;5.40;99.90;;;;;;6186345;23;20814;-81
2023/02/12 08:20:28;;;;;;;37.65;14.27;;;5.50;99.90;;;;;;6186029;23;20429;-82
2023/02/12 08:22:53;;;;;;;39.95;15.60;;;5.90;99.90;;;;;;6186797;23;20032;-80
2023/02/12 08:25:19;;;;;;;43.15;15.82;;;5.90;99.90;;;;;;6212375;23;20016;-80
2023/02/12 08:27:45;;;;;;;42.83;15.88;;;5.70;99.90;;;;;;6214556;23;20021;-81
2023/02/12 08:30:11;;;;;;;40.95;15.93;;;5.80;99.90;;;;;;6185912;23;20021;-82
2023/02/12 08:32:37;;;;;;;48.78;17.25;;;5.50;99.90;;;;;;6185320;23;20016;-81
2023/02/12 08:35:03;;;;;;;54.72;17.35;;;5.50;99.90;;;;;;6161451;23;20464;-82
2023/02/12 08:37:28;;;;;;;51.10;17.75;;;6.10;99.90;;;;;;6187946;23;20008;-80
2023/02/12 08:39:54;;;;;;;47.50;17.52;;;5.70;99.90;;;;;;6185631;23;20405;-81
2023/02/12 08:42:21;;;;;;;49.40;17.58;;;5.70;99.90;;;;;;6212724;23;20357;-82
2023/02/12 08:44:47;;;;;;;51.03;17.80;;;6.30;99.90;;;;;;6187411;23;20024;-80
2023/02/12 08:47:13;;;;;;;49.63;17.83;;;6.30;99.90;;;;;;6211725;23;20017;-81
2023/02/12 08:49:38;;;;;;;55.75;18.85;;;6.20;99.90;;;;;;6184957;23;20013;-79
2023/02/12 08:52:04;;;;;;;46.78;18.08;;;6.10;99.90;;;;;;6184765;23;20413;-79
2023/02/12 08:54:31;;;;;;;46.45;17.95;;;6.30;99.90;;;;;;6208746;23;20409;-77
2023/02/12 08:56:58;;;;;;;48.80;17.90;;;6.40;99.90;;;;;;6208774;23;20066;-82
2023/02/12 08:59:24;;;;;;;52.35;19.55;;;6.00;99.90;;;;;;6209150;23;20093;-83
2023/02/12 09:01:51;;;;;;;52.08;19.60;;;6.40;99.90;;;;;;6182811;23;20016;-82
2023/02/12 09:04:22;;;;;;;52.80;20.73;;;6.60;99.90;;;;;;6183977;23;20016;-82
2023/02/12 09:06:49;;;;;;;51.60;20.63;;;6.60;99.90;;;;;;6213182;23;20023;-79
2023/02/12 09:09:19;;;;;;;53.25;20.90;;;6.20;99.90;;;;;;6204521;23;20353;-81
2023/02/12 09:11:45;;;;;;;50.35;20.27;;;6.40;99.90;;;;;;6179581;23;20027;-80
2023/02/12 09:14:14;;;;;;;52.58;20.08;;;6.40;99.90;;;;;;6182316;23;20112;-81
2023/02/12 09:16:40;;;;;;;52.42;20.95;;;6.40;99.90;;;;;;6205021;23;20024;-80
2023/02/12 09:19:10;;;;;;;50.20;21.10;;;6.40;99.90;;;;;;6208709;23;20012;-85
2023/02/12 09:21:36;;;;;;;45.42;19.17;;;6.40;99.90;;;;;;6182607;23;20046;-83
2023/02/12 09:24:20;;;;;;;53.08;20.70;;;6.50;99.90;;;;;;6208084;23;20114;-82
2023/02/12 09:26:46;;;;;;;47.13;21.40;;;7.10;99.90;;;;;;6205835;23;20031;-81
2023/02/12 09:29:11;;;;;;;54.78;21.05;;;7.20;99.90;;;;;;6212398;23;20016;-83
2023/02/12 09:31:37;;;;;;;48.28;21.73;;;7.10;99.90;;;;;;6208374;23;20138;-82
2023/02/12 09:34:05;;;;;;;53.42;22.63;;;6.70;99.90;;;;;;6207642;23;20047;-80
2023/02/12 09:36:32;;;;;;;46.95;21.92;;;7.40;99.90;;;;;;6183559;23;20024;-79
2023/02/12 09:38:59;;;;;;;52.22;22.50;;;7.30;99.90;;;;;;6186304;23;20009;-78
2023/02/12 09:41:46;;;;;;;52.67;21.85;;;7.10;99.90;;;;;;6208958;23;20058;-79
2023/02/12 09:44:45;;;;;;;50.50;22.23;;;6.80;99.90;;;;;;6226653;23;20020;-79
2023/02/12 09:47:26;;;;;;;44.92;21.17;;;6.90;99.90;;;;;;6229989;23;20032;-79
2023/02/12 09:50:25;;;;;;;45.47;20.73;;;7.00;99.90;;;;;;6194159;23;20048;-81
2023/02/12 09:52:53;;;;;;;48.95;22.10;;;7.00;99.90;;;;;;6212841;23;20028;-80
2023/02/12 09:55:21;;;;;;;51.85;23.73;;;7.10;99.90;;;;;;6210523;23;20368;-80
2023/02/12 09:57:49;;;;;;;54.60;22.58;;;7.50;99.90;;;;;;6207342;23;20044;-81
2023/02/12 10:00:30;;;;;;;50.05;22.52;;;7.70;99.90;;;;;;6180944;23;20044;-80
2023/02/12 10:03:08;;;;;;;45.85;22.25;;;7.30;99.90;;;;;;6205573;23;20333;-81
2023/02/12 10:05:48;;;;;;;45.30;21.73;;;7.90;99.90;;;;;;6155717;23;20144;-80
2023/02/12 10:08:51;;;;;;;48.80;21.85;;;7.60;99.90;;;;;;6204222;23;20115;-81
2023/02/12 10:11:55;;;;;;;47.80;22.08;;;7.60;99.90;;;;;;6205683;23;20013;-80
2023/02/12 10:14:50;;;;;;;37.75;20.77;;;8.00;99.90;;;;;;6203766;23;20071;-81
2023/02/12 10:17:34;;;;;;;43.20;20.52;;;7.60;99.90;;;;;;6066677;23;20010;-82
2023/02/12 10:20:19;;;;;;;41.05;21.63;;;7.90;99.90;;;;;;6068338;23;20018;-81
2023/02/12 10:22:58;;;;;;;42.17;20.45;;;7.50;99.90;;;;;;6067700;23;20020;-81
2023/02/12 10:25:36;;;;;;;44.35;20.75;;;7.50;99.90;;;;;;6069338;23;20205;-79
2023/02/12 10:28:10;;;;;;;43.20;21.75;;;8.00;99.90;;;;;;6070067;23;20401;-79
2023/02/12 10:30:58;;;;;;;38.50;20.80;;;7.70;99.90;;;;;;6092718;23;20017;-78
2023/02/12 10:33:30;;;;;;;40.65;20.48;;;8.10;99.90;;;;;;6093381;23;20028;-77
2023/02/12 10:36:06;;;;;;;39.30;21.25;;;8.10;99.90;;;;;;6116691;23;20112;-79
2023/02/12 10:38:37;;;;;;;37.28;21.38;;;8.00;99.90;;;;;;6090629;23;20134;-77
2023/02/12 10:41:03;;;;;;;37.17;20.85;;;8.10;99.90;;;;;;6066861;23;20014;-78
2023/02/12 10:43:29;;;;;;;43.28;21.50;;;8.00;99.90;;;;;;6068023;23;20036;-78
2023/02/12 10:45:55;;;;;;;40.38;21.45;;;8.40;99.90;;;;;;6068350;23;20025;-78
2023/02/12 10:48:29;;;;;;;32.97;19.13;;;8.10;99.90;;;;;;6091481;23;20753;-79
2023/02/12 10:51:07;;;;;;;38.80;20.27;;;8.00;99.90;;;;;;6064218;23;20154;-78
2023/02/12 10:53:44;;;;;;;36.63;19.30;;;8.10;99.90;;;;;;6098489;23;20020;-76
2023/02/12 10:56:18;;;;;;;39.95;19.50;;;8.10;99.90;;;;;;6206024;23;20443;-79
2023/02/12 10:58:58;;;;;;;36.70;18.70;;;8.60;99.90;;;;;;6205670;23;20096;-79
2023/02/12 11:01:37;;;;;;;41.60;19.33;;;8.30;99.90;;;;;;6204087;23;20009;-79
2023/02/12 11:04:28;;;;;;;35.85;19.20;;;8.50;99.90;;;;;;6202932;23;20478;-79
2023/02/12 11:07:03;;;;;;;35.63;20.10;;;8.40;99.90;;;;;;6189518;23;20023;-80
2023/02/12 11:09:44;;;;;;;34.72;18.63;;;8.70;99.90;;;;;;6204578;23;20023;-79
2023/02/12 11:12:31;;;;;;;32.85;18.73;;;8.80;99.90;;;;;;6181445;23;20452;-80
2023/02/12 11:15:00;;;;;;;34.22;18.20;;;8.50;99.90;;;;;;6210034;23;20013;-78
2023/02/12 11:17:35;;;;;;;32.97;17.65;;;8.60;99.90;;;;;;6184426;23;20040;-78
2023/02/12 11:20:19;;;;;;;32.72;18.10;;;8.80;99.90;;;;;;6209475;23;20044;-78
2023/02/12 11:22:59;;;;;;;30.42;17.20;;;8.70;99.90;;;;;;6208564;23;20352;-78
2023/02/12 11:25:28;;;;;;;29.20;15.95;;;8.80;99.90;;;;;;6185135;23;20024;-77
2023/02/12 11:28:13;;;;;;;31.20;16.90;;;8.90;99.90;;;;;;6183512;23;20095;-79
2023/02/12 11:31:11;;;;;;;29.10;15.93;;;8.90;99.90;;;;;;6183966;23;20047;-77
2023/02/12 11:33:37;;;;;;;30.08;17.02;;;9.10;99.90;;;;;;6184126;23;20023;-78
2023/02/12 11:36:23;;;;;;;30.15;16.40;;;9.00;99.90;;;;;;6185510;23;20012;-79
2023/02/12 11:38:55;;;;;;;31.70;16.98;;;8.90;99.90;;;;;;6208197;23;20012;-78
2023/02/12 11:41:35;;;;;;;28.92;14.75;;;9.40;99.90;;;;;;6184583;23;20051;-78
2023/02/12 11:44:12;;;;;;;28.67;15.02;;;9.30;99.90;;;;;;6180515;23;20012;-81
2023/02/12 11:46:38;;;;;;;25.38;12.43;;;9.50;99.90;;;;;;6179915;23;20396;-80
2023/02/12 11:49:05;;;;;;;23.27;11.85;;;9.10;99.90;;;;;;6205585;23;20105;-80
2023/02/12 11:51:31;;;;;;;21.55;11.30;;;9.50;99.90;;;;;;6211195;23;20020;-81
2023/02/12 11:54:01;;;;;;;22.77;11.07;;;9.50;99.90;;;;;;6210222;23;20341;-80
2023/02/12 11:56:42;;;;;;;19.63;11.15;;;9.40;99.90;;;;;;6211213;23;20012;-83
2023/02/12 11:59:41;;;;;;;19.25;10.57;;;9.40;99.90;;;;;;6209455;23;20092;-81
2023/02/12 12:02:17;;;;;;;21.75;12.38;;;9.70;99.90;;;;;;6071551;23;20087;-80
2023/02/12 12:04:47;;;;;;;20.40;11.13;;;9.60;99.90;;;;;;6071477;23;20018;-81
2023/02/12 12:07:24;;;;;;;19.77;11.75;;;10.00;99.90;;;;;;6071545;23;20024;-83
2023/02/12 12:10:27;;;;;;;18.00;11.32;;;10.00;99.90;;;;;;6068909;23;20036;-80
2023/02/12 12:13:00;;;;;;;17.73;9.63;;;10.00;99.90;;;;;;6071786;23;20882;-81
2023/02/12 12:22:45;;;;;;;4.80;1.10;;;10.30;99.90;;;;;;6093333;23;20066;-83
2023/02/12 12:25:28;;;;;;;3.42;0.88;;;10.20;99.90;;;;;;5925079;24;20319;-81
2023/02/12 12:28:32;;;;;;;0.93;0.50;;;10.10;99.90;;;;;;5903333;24;20025;-81
2023/02/12 12:31:10;;;;;;;0.55;0.30;;;9.80;99.90;;;;;;5943224;24;20049;-81
2023/02/12 12:34:10;;;;;;;1.73;0.40;;;10.10;99.90;;;;;;5950034;24;20024;-82
2023/02/12 12:36:57;;;;;;;0.63;0.22;;;10.00;99.90;;;;;;5924568;24;20120;-82
2023/02/12 12:39:32;;;;;;;1.85;0.20;;;9.80;99.90;;;;;;5977845;23;20098;-82
2023/02/12 12:42:06;;;;;;;1.73;0.60;;;9.80;99.90;;;;;;6009986;23;20047;-81
2023/02/12 12:44:43;;;;;;;2.88;0.70;;;9.80;99.90;;;;;;6009480;23;20514;-80
2023/02/12 12:47:28;;;;;;;3.55;0.65;;;9.70;99.90;;;;;;5984708;23;20042;-82
2023/02/12 12:50:25;;;;;;;1.35;0.63;;;9.90;99.90;;;;;;5985157;23;20023;-80
2023/02/12 12:53:03;;;;;;;3.58;2.00;;;9.80;99.90;;;;;;6009022;23;20015;-81
2023/02/12 12:55:59;;;;;;;7.07;4.35;;;9.70;99.90;;;;;;6036979;23;20033;-81
2023/02/12 12:58:28;;;;;;;13.55;5.40;;;9.60;99.90;;;;;;6099547;23;20014;-81
2023/02/12 13:01:14;;;;;;;10.88;5.22;;;9.50;99.90;;;;;;6102744;23;20028;-79
2023/02/12 13:04:19;;;;;;;9.60;4.75;;;9.40;99.90;;;;;;6211158;23;20452;-78
2023/02/12 13:06:50;;;;;;;10.38;4.65;;;9.50;99.90;;;;;;6211332;23;20087;-80
2023/02/12 13:09:19;;;;;;;6.70;3.70;;;9.30;99.90;;;;;;6182404;23;20060;-78
2023/02/12 13:11:56;;;;;;;7.25;3.55;;;9.20;99.90;;;;;;6182591;23;20048;-80
2023/02/12 13:14:28;;;;;;;8.00;3.78;;;9.20;99.90;;;;;;6207066;23;20020;-78